Atlantic Beach, North Carolina
Current Conditions -  °F | °C
As of 1:58 PM on Thursday 27 Nov 2014 (Local Time) from KMRH Reporting Station
Clear Clear  
Wind Chill: 56°   Ceiling: Unl
Heat Index: 56°   Visibility: 10mi
Dew Point: 40°   Wind: 20mph
Humidity: 55%   Direction: 280°W
Pressure: 29.95"   Gusts: 26mph
Location:  34.7°N, 76.74°W
Report Text: KMRH 271858Z AUTO 28017G23KT 10SM CLR 13/04 A2995 RMK AO2 SLP143 T01330044 TSNO
Loading
Personal Weather Stations






























Interactive Weather Map New forecast layout! Learn more

10-Day Weather Forecast

Advertisements
Track Severe Weather on mobile